Bruce, Wisconsin
Current Conditions -  °F | °C
As of 1:35 AM on Sunday 23 Nov 2014 (Local Time) from KRCX Reporting Station
Moderate Fog Moderate Fog  
Wind Chill: 35°   Ceiling: 200
Heat Index: 40°   Visibility: 0.5mi
Dew Point: 39°   Wind: 7mph
Humidity: 97%   Direction: 150°SSE
Pressure: 29.57"   Gusts: NA
Location:  45.46°N, 91.27°W
Report Text: KRCX 230735Z AUTO 15006KT 1/2SM FG OVC002 05/04 A2957 RMK AO2 T00450040
Loading
Personal Weather Stations






























Interactive Weather Map New forecast layout! Learn more

10-Day Weather Forecast

Advertisements
Track Severe Weather on mobile